createdAt,value
2023-03-05T00:03:38.787Z,44429.06
2023-03-05T00:08:42.866Z,44488.97
2023-03-05T00:13:47.051Z,44447.03
2023-03-05T00:18:52.799Z,44449.03
2023-03-05T00:23:57.806Z,44465.00
2023-03-05T00:29:02.208Z,44449.03
2023-03-05T00:34:09.938Z,44475.00
2023-03-05T00:39:14.760Z,44467.00
2023-03-05T00:44:18.935Z,44443.06
2023-03-05T00:49:24.461Z,44417.09
2023-03-05T00:54:29.992Z,44403.13
2023-03-05T00:59:34.810Z,44333.25
2023-03-05T01:04:40.652Z,44357.22
2023-03-05T01:09:44.829Z,44365.19
2023-03-05T01:14:49.030Z,44347.25
2023-03-05T01:19:54.599Z,44345.25
2023-03-05T01:24:58.996Z,44371.19
2023-03-05T01:30:03.387Z,44373.19
2023-03-05T01:35:10.172Z,44375.19
2023-03-05T01:40:17.583Z,44453.03
2023-03-05T01:45:21.704Z,44560.81
2023-03-05T01:50:28.984Z,44598.75
2023-03-05T01:55:37.417Z,44670.63
2023-03-05T02:00:46.837Z,44684.59
2023-03-05T02:05:52.869Z,44720.53
2023-03-05T02:10:58.201Z,44772.44
2023-03-05T02:16:03.659Z,44792.41
2023-03-05T02:21:10.708Z,44736.50
2023-03-05T02:26:15.086Z,44780.41
2023-03-05T02:31:21.892Z,44842.31
2023-03-05T02:36:27.967Z,44882.22
2023-03-05T02:41:32.358Z,44914.16
2023-03-05T02:46:36.904Z,45045.94
2023-03-05T02:51:43.426Z,45059.91
2023-03-05T02:56:47.956Z,45189.69
2023-03-05T03:01:52.257Z,45177.69
2023-03-05T03:06:57.829Z,45175.72
2023-03-05T03:12:02.187Z,45203.66
2023-03-05T03:17:07.407Z,45243.59
2023-03-05T03:22:15.253Z,45231.59
2023-03-05T03:27:19.581Z,45239.59
2023-03-05T03:32:23.794Z,45201.66
2023-03-05T03:37:30.087Z,45235.59
2023-03-05T03:42:34.670Z,45207.66
2023-03-05T03:47:38.821Z,45157.75
2023-03-05T03:52:44.651Z,45117.81
2023-03-05T03:57:48.742Z,45087.84
2023-03-05T04:02:52.927Z,45131.78
2023-03-05T04:08:00.173Z,45183.69
2023-03-05T04:13:04.330Z,45283.53
2023-03-05T04:18:08.552Z,45291.50
2023-03-05T04:23:14.217Z,45257.56
2023-03-05T04:28:19.081Z,45219.63
2023-03-05T04:33:23.729Z,45237.59
2023-03-05T04:38:29.386Z,45349.41
2023-03-05T04:43:33.629Z,45355.41
2023-03-05T04:48:37.712Z,45373.38
2023-03-05T04:53:43.235Z,45367.38
2023-03-05T04:58:47.683Z,45323.44
2023-03-05T05:03:51.993Z,45299.50
2023-03-05T05:08:57.676Z,45295.50
2023-03-05T05:14:02.168Z,45247.59
2023-03-05T05:19:06.761Z,45211.66
2023-03-05T05:24:12.658Z,45191.69
2023-03-05T05:29:16.878Z,45211.66
2023-03-05T05:34:20.944Z,45123.78
2023-03-05T05:39:26.533Z,45187.69
2023-03-05T05:44:30.690Z,45167.72
2023-03-05T05:49:35.683Z,45103.84
2023-03-05T05:54:41.662Z,45099.84
2023-03-05T05:59:45.814Z,45067.91
2023-03-05T06:04:50.682Z,45067.91
2023-03-05T06:09:56.493Z,45041.94
2023-03-05T06:15:00.826Z,45055.91
2023-03-05T06:20:06.982Z,44984.03
2023-03-05T06:25:13.076Z,44968.06
2023-03-05T06:30:17.720Z,44860.28
2023-03-05T06:35:22.849Z,44748.47
2023-03-05T06:40:28.502Z,44666.63
2023-03-05T06:45:32.840Z,44612.72
2023-03-05T06:50:37.640Z,44504.94
2023-03-05T06:55:43.238Z,44377.19
2023-03-05T07:00:47.494Z,44239.44
2023-03-05T07:05:51.709Z,44203.53
2023-03-05T07:10:57.621Z,44141.66
2023-03-05T07:16:05.964Z,44013.91
2023-03-05T07:21:13.302Z,43930.06
2023-03-05T07:26:19.083Z,43914.09
2023-03-05T07:31:27.601Z,43950.03
2023-03-05T07:36:35.171Z,43938.06
2023-03-05T07:41:40.913Z,43906.13
2023-03-05T07:46:45.972Z,43882.19
2023-03-05T07:51:50.125Z,43854.22
2023-03-05T07:56:56.225Z,43934.06
2023-03-05T08:02:00.994Z,43968.00
2023-03-05T08:07:05.790Z,44045.84
2023-03-05T08:12:11.853Z,44009.91
2023-03-05T08:17:16.307Z,43906.13
2023-03-05T08:22:20.712Z,43956.03
2023-03-05T08:27:26.242Z,43964.00
2023-03-05T08:32:30.704Z,43981.97
2023-03-05T08:37:35.283Z,43968.00
2023-03-05T08:42:40.843Z,43977.97
2023-03-05T08:47:45.277Z,43934.06
2023-03-05T08:52:49.752Z,44007.91
2023-03-05T08:57:55.793Z,43989.94
2023-03-05T09:03:00.739Z,44065.81
2023-03-05T09:08:05.024Z,44093.75
2023-03-05T09:13:11.534Z,44151.63
2023-03-05T09:18:15.732Z,44089.75
2023-03-05T09:23:20.245Z,43890.16
2023-03-05T09:28:26.123Z,43752.44
2023-03-05T09:33:30.392Z,43634.69
2023-03-05T09:38:36.585Z,43455.09
2023-03-05T09:43:51.844Z,43177.69
2023-03-05T09:49:04.320Z,42904.31
2023-03-05T09:54:14.552Z,42644.94
2023-03-05T09:59:31.933Z,42668.88
2023-03-05T10:04:46.508Z,42636.97
2023-03-05T10:09:56.364Z,42617.00
2023-03-05T10:15:03.438Z,42794.59
2023-03-05T10:20:33.466Z,42748.69
2023-03-05T10:25:53.563Z,42866.41
2023-03-05T10:31:19.022Z,42964.19
2023-03-05T10:36:46.990Z,43171.72
2023-03-05T10:42:02.615Z,43241.56
2023-03-05T10:47:17.187Z,43331.34
2023-03-05T10:52:26.703Z,43437.13
2023-03-05T10:57:32.677Z,43443.09
2023-03-05T11:02:55.297Z,43451.09
2023-03-05T11:07:59.531Z,43512.97
2023-03-05T11:13:25.221Z,43564.84
2023-03-05T11:18:34.603Z,43690.56
2023-03-05T11:23:40.308Z,43852.25
2023-03-05T11:28:58.219Z,44033.88
2023-03-05T11:34:05.719Z,44345.25
2023-03-05T11:39:17.255Z,44522.91
2023-03-05T11:44:24.320Z,44702.56
2023-03-05T11:49:34.121Z,44740.50
2023-03-05T11:54:50.009Z,44864.25
2023-03-05T11:59:57.095Z,44956.09
2023-03-05T12:05:03.594Z,44980.06
2023-03-05T12:10:08.583Z,45012.00
2023-03-05T12:15:37.209Z,45035.94
2023-03-05T12:20:50.092Z,45109.81
2023-03-05T12:25:57.226Z,45137.78
2023-03-05T12:31:02.743Z,45253.56
2023-03-05T12:36:39.884Z,45417.28
2023-03-05T12:41:45.087Z,45549.06
2023-03-05T12:47:19.419Z,45662.88
2023-03-05T12:52:31.840Z,45672.88
2023-03-05T12:57:38.117Z,45676.88
2023-03-05T13:02:45.642Z,45666.88
2023-03-05T13:07:52.950Z,45734.78
2023-03-05T13:12:59.666Z,45762.72
2023-03-05T13:18:08.721Z,45806.66
2023-03-05T13:23:20.851Z,45738.75
2023-03-05T13:28:25.597Z,45674.88
2023-03-05T13:33:32.595Z,45575.03
2023-03-05T13:38:41.722Z,45557.06
2023-03-05T13:43:46.610Z,45543.09
2023-03-05T13:48:51.831Z,45515.13
2023-03-05T13:53:57.790Z,45581.03
2023-03-05T13:59:02.428Z,45569.03
2023-03-05T14:04:18.903Z,45561.06
2023-03-05T14:09:27.229Z,45597.00
2023-03-05T14:14:35.824Z,45690.84
2023-03-05T14:19:40.760Z,45680.84
2023-03-05T14:24:54.222Z,45650.91
2023-03-05T14:29:58.952Z,45591.00
2023-03-05T14:35:05.660Z,45497.16
2023-03-05T14:40:22.618Z,45503.16
2023-03-05T14:45:29.360Z,45523.13
2023-03-05T14:50:36.325Z,45523.13
2023-03-05T14:55:43.872Z,45557.06
2023-03-05T15:00:50.103Z,45531.09
2023-03-05T15:05:58.155Z,45579.03
2023-03-05T15:11:04.458Z,45505.16
2023-03-05T15:16:09.990Z,45555.06
2023-03-05T15:21:14.177Z,45543.09
2023-03-05T15:26:19.833Z,45547.06
2023-03-05T15:31:25.024Z,45537.09
2023-03-05T15:36:29.503Z,45507.13
2023-03-05T15:41:35.066Z,45517.13
2023-03-05T15:46:39.350Z,45515.13
2023-03-05T15:51:44.630Z,45449.25
2023-03-05T15:56:50.521Z,45383.34
2023-03-05T16:01:54.892Z,45033.97
2023-03-05T16:07:00.581Z,44716.53
2023-03-05T16:12:10.326Z,44574.81
2023-03-05T16:17:16.720Z,44439.06
2023-03-05T16:22:21.342Z,44325.28
2023-03-05T16:27:27.581Z,44197.53
2023-03-05T16:32:32.298Z,44023.88
2023-03-05T16:37:36.778Z,43798.34
2023-03-05T16:42:42.612Z,43700.56
2023-03-05T16:47:46.810Z,43784.38
2023-03-05T16:52:51.654Z,43738.47
2023-03-05T16:57:57.428Z,43648.66
2023-03-05T17:03:02.682Z,43530.91
2023-03-05T17:08:07.759Z,43099.88
2023-03-05T17:13:13.667Z,43081.91
2023-03-05T17:18:17.806Z,42908.31
2023-03-05T17:23:22.107Z,42824.50
2023-03-05T17:28:28.104Z,42515.25
2023-03-05T17:33:33.027Z,42315.75
2023-03-05T17:38:37.156Z,42188.06
2023-03-05T17:43:43.155Z,42120.22
2023-03-05T17:48:48.729Z,42048.41
2023-03-05T17:53:53.126Z,42042.41
2023-03-05T17:58:58.804Z,42050.41
2023-03-05T18:04:03.440Z,42004.53
2023-03-05T18:09:07.771Z,42070.34
2023-03-05T18:14:15.794Z,42084.31
2023-03-05T18:19:21.018Z,42214.00
2023-03-05T18:24:25.619Z,42237.94
2023-03-05T18:29:31.289Z,42265.84
2023-03-05T18:34:35.567Z,42321.72
2023-03-05T18:39:39.813Z,42259.88
2023-03-05T18:44:45.563Z,42194.03
2023-03-05T18:49:49.994Z,42329.69
2023-03-05T18:54:54.544Z,42126.22
2023-03-05T19:00:00.471Z,42154.13
2023-03-05T19:05:05.080Z,42217.97
2023-03-05T19:10:12.025Z,42122.22
2023-03-05T19:15:18.661Z,41870.88
2023-03-05T19:20:23.327Z,41735.22
2023-03-05T19:25:27.487Z,41822.97
2023-03-05T19:30:33.338Z,41727.22
2023-03-05T19:35:37.714Z,41677.38
2023-03-05T19:40:42.669Z,41659.41
2023-03-05T19:45:48.332Z,41591.59
2023-03-05T19:50:52.481Z,41625.50
2023-03-05T19:55:56.753Z,41627.50
2023-03-05T20:01:11.092Z,41539.72
2023-03-05T20:06:16.152Z,41434.00
2023-03-05T20:11:21.205Z,41434.00
2023-03-05T20:16:29.925Z,41531.75
2023-03-05T20:21:37.398Z,41673.38
2023-03-05T20:26:42.664Z,41667.41
2023-03-05T20:31:50.211Z,41719.25
2023-03-05T20:36:54.593Z,41757.16
2023-03-05T20:41:58.976Z,41719.25
2023-03-05T20:47:44.856Z,41803.03
2023-03-05T20:52:49.540Z,41805.03
2023-03-05T20:57:54.187Z,41755.16
2023-03-05T21:03:00.051Z,41763.13
2023-03-05T21:08:05.926Z,41787.06
2023-03-05T21:13:10.260Z,41866.88
2023-03-05T21:18:16.321Z,41858.88
2023-03-05T21:23:20.519Z,41783.09
2023-03-05T21:28:25.670Z,41819.00
2023-03-05T21:33:31.941Z,41759.16
2023-03-05T21:38:36.265Z,41755.16
2023-03-05T21:43:40.530Z,41763.13
2023-03-05T21:48:46.408Z,41757.16
2023-03-05T21:53:51.159Z,41761.16
2023-03-05T21:58:55.485Z,41737.22
2023-03-05T22:04:01.109Z,41595.59
2023-03-05T22:09:05.500Z,41623.50
2023-03-05T22:14:10.473Z,41595.59
2023-03-05T22:19:16.260Z,41679.38
2023-03-05T22:24:21.992Z,41747.19
2023-03-05T22:29:27.018Z,41747.19
2023-03-05T22:34:33.022Z,41695.31
2023-03-05T22:39:37.431Z,41647.44
2023-03-05T22:44:41.835Z,41655.44
2023-03-05T22:49:47.696Z,41749.19
2023-03-05T22:54:53.372Z,41745.19
2023-03-05T22:59:58.707Z,41691.31
2023-03-05T23:05:04.403Z,41707.28
2023-03-05T23:10:12.275Z,41828.97
2023-03-05T23:15:18.457Z,41807.03
2023-03-05T23:20:26.428Z,41741.19
2023-03-05T23:25:33.291Z,41769.13
2023-03-05T23:30:39.742Z,41862.88
2023-03-05T23:35:51.874Z,41775.09
2023-03-05T23:41:00.503Z,41739.19
2023-03-05T23:46:10.852Z,41745.19
2023-03-05T23:51:17.616Z,41727.22
2023-03-05T23:56:23.094Z,41687.34
